Hingham, Montana
Current Conditions -  °F | °C
As of 8:53 AM on Sunday 25 Jan 2015 (Local Time) from KHVR Reporting Station
Clear Clear  
Wind Chill:   Ceiling: Unl
Heat Index:   Visibility: 10mi
Dew Point:   Wind: 17mph
Humidity: 76%   Direction: 230°SW
Pressure: 29.86"   Gusts: NA
Location:  48.55°N, 110.42°W
Report Text: KHVR 251553Z AUTO 23015KT 10SM CLR 06/02 A2986 RMK AO2 SLP129 T00610022
Loading
Personal Weather Stations






























Interactive Weather Map New forecast layout! Learn more

10-Day Weather Forecast

Advertisements
Track Severe Weather on mobile